Hauptseite
METAR-TAF:

METAR-TAF

Flughäfen :

Huesca, Spanien

Flughafen Huesca-Pirineos

Breite: 42-04-32N, Länge: 0-18-58W, Höhe: 539 m

Beobachtung

Neuester Wetterbericht von vor 23 Minuten, um 15:00 UTC
Wind 22 kt aus West/Nordwest, variierte zwischen West und Nordwest
Temperatur 15°C
Luftfeuchtigkeit 41%
Luftdruck 1018 hPa
Sichtweite 10 km oder mehr
keine Wolken unter 1500 m und keine Kumulonimbus oder Gewitterwolken

METAR: LEHC 191500Z 29022KT 260V320 CAVOK 15/02 Q1018

Zeit: 16:23 (15:23 UTC)

Prognose

Neuester Wetterbericht von vor 7 Stunden und 23 Minuten, um 08:00 UTC
Gültige Prognose vom 19 um 09 UTC bis 20 um 09 UTC
Wind 10 kt aus West
Sichtweite 10 km oder mehr
Leicht bewölkt in der Höhe von 3000 ft
Zeitweise
vom 19 um 10 UTC bis 19 um 19 UTC
Wind 20 kt aus West/Nordwest, Böen bis zu 30 kt

TAF: LEHC 190800Z 1909/2009 28010KT 9999 FEW030 TX13/1913Z TN03/2007Z TEMPO 1910/1919 30020G30KT

Wetterbeobachtungen und Prognosen von mehr als 4000 Flughäfen (METAR und TAF Bericht).

Die verfügbaren Stationen werden durch gelbe und rote Markierungen auf der Karte dargestellt.

Führen Sie die Maus auf sie, um den Namen der Station zu sehen.

Darauf klicken, um die Beobachtung von Wetterbeobachtungen und Prognosen zu sehen.

Um die Karte zu ändern : klicken Sie auf den grünen Tasten mit einem schwarzen Kreuz Zum Vergrößern, auf den grünen Button mit einem Gedankenstrich zu verkleinern, oder auf die grünen Pfeile für benachbarte Karten.


METAR-TAF: